Time;durP1;ratioP1;P1;durP2;ratioP2;P2;SDS_P1;SDS_P2;PMS_P1;PMS_P2;Temp;Humidity;BMP_temperature;BMP_pressure;BME280_temperature;BME280_humidity;BME280_pressure;Samples;Min_cycle;Max_cycle;Signal;HPM_P1;HPM_P2
2023/04/18 00:00:48;;;;;;;;;;;;;;;;;;137683;1272;22373;-84
2023/04/18 00:03:50;;;;;;;;;;;;;;;;;;137671;1273;22256;-84
2023/04/18 00:06:51;;;;;;;;;;;;;;;;;;137663;1273;22267;-84
2023/04/18 00:09:52;;;;;;;;;;;;;;;;;;137685;1273;22260;-84
2023/04/18 00:12:54;;;;;;;;;;;;;;;;;;137697;1270;22211;-87
2023/04/18 00:15:55;;;;;;;;;;;;;;;;;;137647;1273;22240;-81
2023/04/18 00:18:56;;;;;;;;;;;;;;;;;;137619;1273;22375;-86
2023/04/18 00:21:58;;;;;;;;;;;;;;;;;;137627;1273;22156;-86
2023/04/18 00:24:59;;;;;;;;;;;;;;;;;;137599;1273;22213;-84
2023/04/18 00:28:01;;;;;;;;;;;;;;;;;;137614;1273;22350;-84
2023/04/18 00:31:02;;;;;;;;;;;;;;;;;;137577;1273;22295;-84
2023/04/18 00:34:03;;;;;;;;;;;;;;;;;;137577;1273;22207;-86
2023/04/18 00:37:04;;;;;;;;;;;;;;;;;;137629;1273;22269;-85
2023/04/18 00:40:06;;;;;;;;;;;;;;;;;;137618;1273;22433;-83
2023/04/18 00:43:07;;;;;;;;;;;;;;;;;;137568;1273;22273;-83
2023/04/18 00:46:08;;;;;;;;;;;;;;;;;;137572;1273;22264;-83
2023/04/18 00:49:09;;;;;;;;;;;;;;;;;;137564;1273;22789;-84
2023/04/18 00:52:10;;;;;;;;;;;;;;;;;;137603;1273;22272;-86
2023/04/18 00:55:11;;;;;;;;;;;;;;;;;;137588;1273;22231;-84
2023/04/18 00:58:13;;;;;;;;;;;;;;;;;;137586;1273;22376;-86
2023/04/18 01:01:17;;;;;;;;;;;;;;;;;;137592;1273;22131;-86
2023/04/18 01:04:18;;;;;;;;;;;;;;;;;;137623;1273;22404;-86
2023/04/18 01:07:20;;;;;;;;;;;;;;;;;;137581;1273;22689;-85
2023/04/18 01:10:21;;;;;;;;;;;;;;;;;;137590;1273;22204;-85
2023/04/18 01:13:23;;;;;;;;;;;;;;;;;;137618;1273;22300;-85
2023/04/18 01:16:27;;;;;;;;;;;;;;;;;;137629;1273;22413;-86
2023/04/18 01:19:32;;;;;;;;;;;;;;;;;;137615;1273;22375;-87
2023/04/18 01:22:39;;;;;;;;;;;;;;;;;;137647;1273;22397;-86
2023/04/18 01:25:45;;;;;;;;;;;;;;;;;;137595;1273;22249;-85
2023/04/18 01:28:48;;;;;;;;;;;;;;;;;;137644;1273;22280;-85
2023/04/18 01:31:49;;;;;;;;;;;;;;;;;;137649;1273;22216;-86
2023/04/18 01:34:51;;;;;;;;;;;;;;;;;;137589;1273;22291;-86
2023/04/18 01:37:52;;;;;;;;;;;;;;;;;;137604;1273;22441;-84
2023/04/18 01:40:54;;;;;;;;;;;;;;;;;;137618;1269;22878;-83
2023/04/18 01:43:55;;;;;;;;;;;;;;;;;;137584;1272;22367;-84
2023/04/18 01:46:56;;;;;;;;;;;;;;;;;;137662;1259;22489;-84
2023/04/18 01:49:58;;;;;;;;;;;;;;;;;;137633;1273;22314;-83
2023/04/18 01:52:59;;;;;;;;;;;;;;;;;;137641;1273;22282;-83
2023/04/18 01:56:09;;;;;;;;;;;;;;;;;;137648;1273;22288;-85
2023/04/18 01:59:12;;;;;;;;;;;;;;;;;;137637;1273;22441;-84
2023/04/18 02:02:14;;;;;;;;;;;;;;;;;;137606;1273;22290;-85
2023/04/18 02:05:15;;;;;;;;;;;;;;;;;;137614;1273;22233;-85
2023/04/18 02:08:16;;;;;;;;;;;;;;;;;;137599;1273;22702;-85
2023/04/18 02:11:17;;;;;;;;;;;;;;;;;;137613;1273;22287;-84
2023/04/18 02:14:19;;;;;;;;;;;;;;;;;;137657;1273;22293;-83
2023/04/18 02:17:22;;;;;;;;;;;;;;;;;;137599;1273;22373;-85
2023/04/18 02:20:25;;;;;;;;;;;;;;;;;;137571;1273;22314;-84
2023/04/18 02:23:26;;;;;;;;;;;;;;;;;;137585;1272;22292;-83
2023/04/18 02:26:27;;;;;;;;;;;;;;;;;;137601;1273;22207;-84
2023/04/18 02:29:29;;;;;;;;;;;;;;;;;;137602;1273;22269;-84
2023/04/18 02:32:32;;;;;;;;;;;;;;;;;;137630;1273;22384;-84
2023/04/18 02:35:33;;;;;;;;;;;;;;;;;;137723;1273;22289;-85
2023/04/18 02:38:36;;;;;;;;;;;;;;;;;;137683;1273;22414;-85
2023/04/18 02:41:38;;;;;;;;;;;;;;;;;;137640;1273;22342;-86
2023/04/18 02:44:41;;;;;;;;;;;;;;;;;;137612;1273;22304;-85
2023/04/18 02:47:44;;;;;;;;;;;;;;;;;;137628;1273;22452;-84
2023/04/18 02:50:45;;;;;;;;;;;;;;;;;;137602;1272;22282;-83
2023/04/18 02:53:47;;;;;;;;;;;;;;;;;;137585;1273;22759;-82
2023/04/18 02:56:48;;;;;;;;;;;;;;;;;;137612;1273;22660;-82
2023/04/18 02:59:49;;;;;;;;;;;;;;;;;;137540;1273;22283;-84
2023/04/18 03:02:51;;;;;;;;;;;;;;;;;;137556;1273;22181;-84
2023/04/18 03:05:52;;;;;;;;;;;;;;;;;;137588;1273;22838;-84
2023/04/18 03:09:05;;;;;;;;;;;;;;;;;;137584;1273;22313;-84
2023/04/18 03:12:06;;;;;;;;;;;;;;;;;;137606;1273;22407;-83
2023/04/18 03:15:07;;;;;;;;;;;;;;;;;;137587;1273;22196;-84
2023/04/18 03:18:09;;;;;;;;;;;;;;;;;;137557;1273;22373;-85
2023/04/18 03:21:14;;;;;;;;;;;;;;;;;;137592;1273;22306;-84
2023/04/18 03:24:17;;;;;;;;;;;;;;;;;;137673;1273;22334;-85
2023/04/18 03:27:18;;;;;;;;;;;;;;;;;;137592;1273;22757;-84
2023/04/18 03:30:19;;;;;;;;;;;;;;;;;;137613;1273;22278;-83
2023/04/18 03:33:23;;;;;;;;;;;;;;;;;;137567;1273;22322;-84
2023/04/18 03:36:26;;;;;;;;;;;;;;;;;;137590;1273;22308;-83
2023/04/18 03:39:27;;;;;;;;;;;;;;;;;;137551;1273;22281;-82
2023/04/18 03:42:28;;;;;;;;;;;;;;;;;;137579;1273;22287;-82
2023/04/18 03:45:29;;;;;;;;;;;;;;;;;;137598;1270;22711;-83
2023/04/18 03:48:34;;;;;;;;;;;;;;;;;;137586;1273;22415;-82
2023/04/18 03:51:35;;;;;;;;;;;;;;;;;;137602;1273;22316;-82
2023/04/18 03:54:36;;;;;;;;;;;;;;;;;;137578;1273;22292;-81
2023/04/18 03:57:37;;;;;;;;;;;;;;;;;;137555;1273;22453;-81
2023/04/18 04:00:39;;;;;;;;;;;;;;;;;;137565;1273;22280;-81
2023/04/18 04:03:40;;;;;;;;;;;;;;;;;;137610;1273;22300;-81
2023/04/18 04:06:41;;;;;;;;;;;;;;;;;;137626;1273;22592;-82
2023/04/18 04:09:42;;;;;;;;;;;;;;;;;;137565;1273;22400;-82
2023/04/18 04:12:43;;;;;;;;;;;;;;;;;;137633;1272;22273;-82
2023/04/18 04:15:44;;;;;;;;;;;;;;;;;;137571;1261;22187;-81
2023/04/18 04:18:45;;;;;;;;;;;;;;;;;;137598;1273;22841;-82
2023/04/18 04:21:46;;;;;;;;;;;;;;;;;;137634;1273;22164;-80
2023/04/18 04:24:47;;;;;;;;;;;;;;;;;;137648;1273;22286;-80
2023/04/18 04:27:48;;;;;;;;;;;;;;;;;;137643;1273;22743;-82
2023/04/18 04:30:49;;;;;;;;;;;;;;;;;;137567;1273;22740;-82
2023/04/18 04:33:50;;;;;;;;;;;;;;;;;;137632;1273;22322;-83
2023/04/18 04:36:52;;;;;;;;;;;;;;;;;;137522;1273;22291;-82
2023/04/18 04:39:55;;;;;;;;;;;;;;;;;;137521;1273;22705;-81
2023/04/18 04:42:57;;;;;;;;;;;;;;;;;;137565;1273;22720;-82
2023/04/18 04:45:58;;;;;;;;;;;;;;;;;;137560;1273;22677;-82
2023/04/18 04:48:59;;;;;;;;;;;;;;;;;;137565;1273;22436;-82
2023/04/18 04:52:02;;;;;;;;;;;;;;;;;;137551;1272;22282;-84
2023/04/18 04:55:03;;;;;;;;;;;;;;;;;;137572;1273;22314;-84
2023/04/18 04:58:04;;;;;;;;;;;;;;;;;;137562;1273;22304;-82
2023/04/18 05:01:07;;;;;;;;;;;;;;;;;;137607;1273;22162;-84
2023/04/18 05:04:08;;;;;;;;;;;;;;;;;;137581;1273;22241;-83
2023/04/18 05:07:10;;;;;;;;;;;;;;;;;;137543;1273;22308;-83
2023/04/18 05:10:11;;;;;;;;;;;;;;;;;;137510;1273;22255;-81
2023/04/18 05:13:12;;;;;;;;;;;;;;;;;;137546;1273;22169;-83
2023/04/18 05:16:13;;;;;;;;;;;;;;;;;;137441;1272;22239;-82
2023/04/18 05:19:14;;;;;;;;;;;;;;;;;;137490;1273;22370;-84
2023/04/18 05:22:15;;;;;;;;;;;;;;;;;;137526;1273;22263;-83
2023/04/18 05:25:16;;;;;;;;;;;;;;;;;;137462;1273;22191;-82
2023/04/18 05:28:17;;;;;;;;;;;;;;;;;;137549;1273;22163;-82
2023/04/18 05:31:18;;;;;;;;;;;;;;;;;;137546;1273;22184;-84
2023/04/18 05:34:19;;;;;;;;;;;;;;;;;;137578;1273;22285;-82
2023/04/18 05:37:21;;;;;;;;;;;;;;;;;;137568;1273;22323;-84
2023/04/18 05:40:22;;;;;;;;;;;;;;;;;;137559;1273;22238;-82
2023/04/18 05:43:23;;;;;;;;;;;;;;;;;;137543;1273;22190;-82
2023/04/18 05:46:24;;;;;;;;;;;;;;;;;;137513;1273;22637;-82
2023/04/18 05:49:25;;;;;;;;;;;;;;;;;;137515;1273;22754;-83
2023/04/18 05:52:26;;;;;;;;;;;;;;;;;;137551;1273;22205;-81
2023/04/18 05:55:27;;;;;;;;;;;;;;;;;;137546;1273;22325;-83
2023/04/18 05:58:28;;;;;;;;;;;;;;;;;;137540;1273;22248;-82
2023/04/18 06:01:29;;;;;;;;;;;;;;;;;;137531;1273;22281;-83
2023/04/18 06:04:30;;;;;;;;;;;;;;;;;;137522;1273;22194;-81
2023/04/18 06:07:31;;;;;;;;;;;;;;;;;;137561;1273;22247;-82
2023/04/18 06:10:32;;;;;;;;;;;;;;;;;;137552;1273;22348;-83
2023/04/18 06:13:33;;;;;;;;;;;;;;;;;;137597;1262;22207;-83
2023/04/18 06:16:34;;;;;;;;;;;;;;;;;;137541;1273;22768;-83
2023/04/18 06:19:35;;;;;;;;;;;;;;;;;;137549;1273;22402;-82
2023/04/18 06:22:36;;;;;;;;;;;;;;;;;;137547;1273;22308;-83
2023/04/18 06:25:37;;;;;;;;;;;;;;;;;;137606;1273;22763;-82
2023/04/18 06:28:38;;;;;;;;;;;;;;;;;;137547;1273;22185;-83
2023/04/18 06:31:40;;;;;;;;;;;;;;;;;;137560;1273;22162;-82
2023/04/18 06:34:42;;;;;;;;;;;;;;;;;;137551;1273;22281;-84
2023/04/18 06:37:43;;;;;;;;;;;;;;;;;;137581;1273;22301;-84
2023/04/18 06:40:44;;;;;;;;;;;;;;;;;;137589;1273;23167;-84
2023/04/18 06:43:45;;;;;;;;;;;;;;;;;;137581;1273;22287;-83
2023/04/18 06:46:48;;;;;;;;;;;;;;;;;;137590;1273;22378;-83
2023/04/18 06:49:49;;;;;;;;;;;;;;;;;;137593;1273;22269;-83
2023/04/18 06:52:50;;;;;;;;;;;;;;;;;;137632;1273;22210;-84
2023/04/18 06:55:51;;;;;;;;;;;;;;;;;;137665;1273;22159;-83
2023/04/18 06:58:53;;;;;;;;;;;;;;;;;;137590;1273;22260;-82
2023/04/18 07:01:54;;;;;;;;;;;;;;;;;;137569;1273;23015;-80
2023/04/18 07:04:55;;;;;;;;;;;;;;;;;;137564;1273;22326;-82
2023/04/18 07:07:56;;;;;;;;;;;;;;;;;;137544;1271;22756;-84
2023/04/18 07:10:57;;;;;;;;;;;;;;;;;;137408;1263;199435;-84
2023/04/18 07:13:58;;;;;;;;;;;;;;;;;;137569;1273;22147;-83
2023/04/18 07:16:59;;;;;;;;;;;;;;;;;;137598;1273;22409;-81
2023/04/18 07:20:00;;;;;;;;;;;;;;;;;;137594;1273;22160;-83
2023/04/18 07:23:01;;;;;;;;;;;;;;;;;;137552;1273;22266;-82
2023/04/18 07:26:04;;;;;;;;;;;;;;;;;;137563;1273;22242;-83
2023/04/18 07:29:05;;;;;;;;;;;;;;;;;;137575;1273;22190;-83
2023/04/18 07:32:06;;;;;;;;;;;;;;;;;;137616;1273;22128;-83
2023/04/18 07:35:07;;;;;;;;;;;;;;;;;;137648;1272;22294;-84
2023/04/18 07:38:10;;;;;;;;;;;;;;;;;;137656;1273;22811;-84
2023/04/18 07:41:11;;;;;;;;;;;;;;;;;;137593;1273;22507;-83
2023/04/18 07:44:12;;;;;;;;;;;;;;;;;;137601;1273;22284;-83
2023/04/18 07:47:13;;;;;;;;;;;;;;;;;;137587;1273;22368;-81
2023/04/18 07:50:14;;;;;;;;;;;;;;;;;;137590;1273;22161;-83
2023/04/18 07:53:15;;;;;;;;;;;;;;;;;;137587;1273;22263;-83
2023/04/18 07:56:16;;;;;;;;;;;;;;;;;;137598;1273;22262;-84
2023/04/18 07:59:17;;;;;;;;;;;;;;;;;;137615;1273;22652;-84
2023/04/18 08:02:18;;;;;;;;;;;;;;;;;;137625;1273;22197;-85
2023/04/18 08:05:19;;;;;;;;;;;;;;;;;;137619;1273;22256;-85
2023/04/18 08:08:20;;;;;;;;;;;;;;;;;;137650;1273;22180;-84
2023/04/18 08:11:22;;;;;;;;;;;;;;;;;;137601;1273;22154;-84
2023/04/18 08:14:23;;;;;;;;;;;;;;;;;;137578;1273;22284;-84
2023/04/18 08:17:24;;;;;;;;;;;;;;;;;;137601;1273;22596;-85
2023/04/18 08:20:25;;;;;;;;;;;;;;;;;;137582;1273;22268;-85
2023/04/18 08:23:26;;;;;;;;;;;;;;;;;;137578;1273;22277;-83
2023/04/18 08:26:27;;;;;;;;;;;;;;;;;;137577;1273;22257;-81
2023/04/18 08:29:28;;;;;;;;;;;;;;;;;;137636;1273;22629;-82
2023/04/18 08:32:29;;;;;;;;;;;;;;;;;;137595;1273;22245;-80
2023/04/18 08:35:30;;;;;;;;;;;;;;;;;;137566;1262;22234;-83
2023/04/18 08:38:31;;;;;;;;;;;;;;;;;;137618;1273;22197;-81
2023/04/18 08:41:32;;;;;;;;;;;;;;;;;;137618;1273;22158;-82
2023/04/18 08:44:33;;;;;;;;;;;;;;;;;;137609;1254;22213;-82
2023/04/18 08:47:34;;;;;;;;;;;;;;;;;;137571;1273;22945;-81
2023/04/18 08:50:35;;;;;;;;;;;;;;;;;;137563;1273;22279;-81
2023/04/18 08:53:38;;;;;;;;;;;;;;;;;;137557;1273;22190;-84
2023/04/18 08:56:39;;;;;;;;;;;;;;;;;;137568;1273;22326;-82
2023/04/18 08:59:43;;;;;;;;;;;;;;;;;;137570;1273;22287;-80
2023/04/18 09:02:45;;;;;;;;;;;;;;;;;;137593;1273;22262;-81
2023/04/18 09:05:47;;;;;;;;;;;;;;;;;;137622;1273;22334;-82
2023/04/18 09:08:48;;;;;;;;;;;;;;;;;;137600;1273;22270;-82
2023/04/18 09:11:49;;;;;;;;;;;;;;;;;;137628;1273;22266;-83
2023/04/18 09:14:50;;;;;;;;;;;;;;;;;;137604;1272;22281;-81
2023/04/18 09:17:55;;;;;;;;;;;;;;;;;;137622;1273;22354;-81
2023/04/18 09:20:56;;;;;;;;;;;;;;;;;;137575;1273;22354;-83
2023/04/18 09:23:57;;;;;;;;;;;;;;;;;;137588;1273;22319;-83
2023/04/18 09:27:00;;;;;;;;;;;;;;;;;;137580;1273;22658;-81
2023/04/18 09:30:01;;;;;;;;;;;;;;;;;;137584;1263;22245;-81
2023/04/18 09:33:02;;;;;;;;;;;;;;;;;;137554;1273;22179;-80
2023/04/18 09:36:04;;;;;;;;;;;;;;;;;;137544;1273;22164;-81
2023/04/18 09:39:05;;;;;;;;;;;;;;;;;;137544;1273;22244;-82
2023/04/18 09:42:06;;;;;;;;;;;;;;;;;;137607;1273;22150;-82
2023/04/18 09:45:07;;;;;;;;;;;;;;;;;;137561;1273;22183;-83
2023/04/18 09:48:08;;;;;;;;;;;;;;;;;;137540;1273;22374;-81
2023/04/18 09:51:09;;;;;;;;;;;;;;;;;;137545;1273;22184;-83
2023/04/18 09:54:10;;;;;;;;;;;;;;;;;;137549;1273;22167;-82
2023/04/18 09:57:12;;;;;;;;;;;;;;;;;;137540;1273;23132;-82
2023/04/18 10:00:16;;;;;;;;;;;;;;;;;;137504;1273;22670;-82
2023/04/18 10:03:17;;;;;;;;;;;;;;;;;;137533;1273;22329;-83
2023/04/18 10:06:18;;;;;;;;;;;;;;;;;;137563;1273;22332;-82
2023/04/18 10:09:19;;;;;;;;;;;;;;;;;;137547;1273;22718;-82
2023/04/18 10:12:20;;;;;;;;;;;;;;;;;;137502;1273;22186;-82
2023/04/18 10:15:21;;;;;;;;;;;;;;;;;;137525;1273;22259;-82
2023/04/18 10:18:22;;;;;;;;;;;;;;;;;;137531;1273;22367;-82
2023/04/18 10:21:25;;;;;;;;;;;;;;;;;;137571;1273;22279;-83
2023/04/18 10:24:26;;;;;;;;;;;;;;;;;;137541;1273;23030;-82
2023/04/18 10:27:27;;;;;;;;;;;;;;;;;;137550;1273;22269;-83
2023/04/18 10:30:28;;;;;;;;;;;;;;;;;;137607;1273;22540;-84
2023/04/18 10:33:29;;;;;;;;;;;;;;;;;;137610;1273;22850;-83
2023/04/18 10:36:31;;;;;;;;;;;;;;;;;;137585;1273;22671;-84
2023/04/18 10:39:32;;;;;;;;;;;;;;;;;;137565;1273;22589;-82
2023/04/18 10:42:33;;;;;;;;;;;;;;;;;;137539;1273;22260;-83
2023/04/18 10:45:35;;;;;;;;;;;;;;;;;;137532;1273;22726;-83
2023/04/18 10:48:37;;;;;;;;;;;;;;;;;;137564;1273;22398;-83
2023/04/18 10:51:39;;;;;;;;;;;;;;;;;;137559;1273;22416;-82
2023/04/18 10:54:39;;;;;;;;;;;;;;;;;;137593;1273;22194;-81
2023/04/18 10:57:41;;;;;;;;;;;;;;;;;;137565;1273;22279;-82
2023/04/18 11:00:42;;;;;;;;;;;;;;;;;;137534;1273;22390;-83
2023/04/18 11:03:43;;;;;;;;;;;;;;;;;;137540;1273;22253;-83
2023/04/18 11:06:44;;;;;;;;;;;;;;;;;;137577;1273;22291;-84
2023/04/18 11:09:45;;;;;;;;;;;;;;;;;;137519;1273;22175;-82
2023/04/18 11:12:46;;;;;;;;;;;;;;;;;;137554;1273;22289;-80
2023/04/18 11:15:47;;;;;;;;;;;;;;;;;;137513;1273;22245;-81
2023/04/18 11:18:49;;;;;;;;;;;;;;;;;;137522;1273;22365;-84
2023/04/18 11:21:51;;;;;;;;;;;;;;;;;;137603;1268;22302;-83
2023/04/18 11:24:52;;;;;;;;;;;;;;;;;;137514;1273;22213;-84
2023/04/18 11:27:54;;;;;;;;;;;;;;;;;;137550;1273;22413;-83
2023/04/18 11:30:55;;;;;;;;;;;;;;;;;;137570;1273;22277;-83
2023/04/18 11:33:56;;;;;;;;;;;;;;;;;;137584;1273;22199;-83
2023/04/18 11:36:57;;;;;;;;;;;;;;;;;;137599;1273;22277;-83
2023/04/18 11:39:58;;;;;;;;;;;;;;;;;;137556;1273;22301;-83
2023/04/18 11:43:00;;;;;;;;;;;;;;;;;;137600;1273;22286;-80
2023/04/18 11:46:01;;;;;;;;;;;;;;;;;;137611;1273;22257;-81
2023/04/18 11:49:02;;;;;;;;;;;;;;;;;;137602;1273;22514;-80
2023/04/18 11:52:04;;;;;;;;;;;;;;;;;;137585;1273;22171;-83
2023/04/18 11:55:05;;;;;;;;;;;;;;;;;;137558;1273;22256;-82
2023/04/18 11:58:06;;;;;;;;;;;;;;;;;;137576;1273;22180;-80
2023/04/18 12:01:07;;;;;;;;;;;;;;;;;;137544;1273;22259;-82
2023/04/18 12:04:08;;;;;;;;;;;;;;;;;;137691;1273;22170;-81
2023/04/18 12:07:09;;;;;;;;;;;;;;;;;;137634;1270;22205;-80
2023/04/18 12:10:10;;;;;;;;;;;;;;;;;;137557;1273;22292;-82
2023/04/18 12:13:11;;;;;;;;;;;;;;;;;;137542;1273;22152;-81
2023/04/18 12:16:12;;;;;;;;;;;;;;;;;;137534;1273;22262;-81
2023/04/18 12:19:13;;;;;;;;;;;;;;;;;;137546;1273;22356;-82
2023/04/18 12:22:15;;;;;;;;;;;;;;;;;;137524;1273;22167;-82
2023/04/18 12:25:20;;;;;;;;;;;;;;;;;;137522;1273;22266;-81
2023/04/18 12:28:21;;;;;;;;;;;;;;;;;;137459;1273;22263;-80
2023/04/18 12:31:22;;;;;;;;;;;;;;;;;;137455;1273;22280;-81
2023/04/18 12:34:23;;;;;;;;;;;;;;;;;;137488;1269;22195;-79
2023/04/18 12:37:24;;;;;;;;;;;;;;;;;;137445;1273;22265;-82
2023/04/18 12:40:25;;;;;;;;;;;;;;;;;;137468;1273;22224;-82
2023/04/18 12:43:27;;;;;;;;;;;;;;;;;;137456;1273;22298;-82
2023/04/18 12:46:28;;;;;;;;;;;;;;;;;;137485;1267;22195;-82
2023/04/18 12:49:29;;;;;;;;;;;;;;;;;;137474;1273;22333;-81
2023/04/18 12:52:30;;;;;;;;;;;;;;;;;;137512;1273;22258;-82
2023/04/18 12:55:31;;;;;;;;;;;;;;;;;;137503;1273;22173;-81
2023/04/18 12:58:32;;;;;;;;;;;;;;;;;;137497;1273;22235;-80
2023/04/18 13:01:33;;;;;;;;;;;;;;;;;;137491;1273;22262;-81
2023/04/18 13:04:34;;;;;;;;;;;;;;;;;;137548;1273;22287;-81
2023/04/18 13:07:54;;;;;;;;;;;;;;;;;;137548;1273;22239;-82
2023/04/18 13:10:55;;;;;;;;;;;;;;;;;;137532;1273;22975;-80
2023/04/18 13:13:56;;;;;;;;;;;;;;;;;;137543;1273;22535;-81
2023/04/18 13:16:57;;;;;;;;;;;;;;;;;;137565;1273;22421;-82
2023/04/18 13:19:58;;;;;;;;;;;;;;;;;;137512;1273;22744;-80
2023/04/18 13:22:59;;;;;;;;;;;;;;;;;;137452;1273;22666;-81
2023/04/18 13:26:00;;;;;;;;;;;;;;;;;;137467;1273;22191;-82
2023/04/18 13:29:01;;;;;;;;;;;;;;;;;;137458;1273;22788;-82
2023/04/18 13:32:02;;;;;;;;;;;;;;;;;;137491;1273;22214;-80
2023/04/18 13:35:06;;;;;;;;;;;;;;;;;;137520;1273;22253;-82
2023/04/18 13:38:07;;;;;;;;;;;;;;;;;;137512;1273;22243;-82
2023/04/18 13:44:43;;;;;;;;;;;;;;;;;;137574;1273;22753;-82
2023/04/18 13:47:44;;;;;;;;;;;;;;;;;;137584;1273;22352;-82
2023/04/18 13:50:45;;;;;;;;;;;;;;;;;;137506;1271;22715;-82
2023/04/18 13:53:46;;;;;;;;;;;;;;;;;;137504;1273;22313;-81
2023/04/18 13:56:47;;;;;;;;;;;;;;;;;;137550;1273;22288;-80
2023/04/18 13:59:48;;;;;;;;;;;;;;;;;;137565;1273;22291;-79
2023/04/18 14:02:49;;;;;;;;;;;;;;;;;;137516;1273;22268;-83
2023/04/18 14:05:50;;;;;;;;;;;;;;;;;;137589;1273;22660;-81
2023/04/18 14:08:51;;;;;;;;;;;;;;;;;;137513;1273;22266;-80
2023/04/18 14:11:52;;;;;;;;;;;;;;;;;;137588;1273;22230;-81
2023/04/18 14:18:31;;;;;;;;;;;;;;;;;;137626;1273;22426;-81
2023/04/18 14:21:32;;;;;;;;;;;;;;;;;;137570;1273;22190;-83
2023/04/18 14:24:33;;;;;;;;;;;;;;;;;;137533;1273;22266;-84
2023/04/18 14:27:34;;;;;;;;;;;;;;;;;;137578;1273;22265;-82
2023/04/18 14:30:35;;;;;;;;;;;;;;;;;;137589;1273;22283;-82
2023/04/18 14:33:37;;;;;;;;;;;;;;;;;;137558;1273;22304;-83
2023/04/18 14:36:38;;;;;;;;;;;;;;;;;;137594;1273;22719;-82
2023/04/18 14:39:39;;;;;;;;;;;;;;;;;;137613;1273;22355;-83
2023/04/18 14:42:40;;;;;;;;;;;;;;;;;;137603;1273;22176;-82
2023/04/18 14:45:42;;;;;;;;;;;;;;;;;;137592;1273;22146;-83
2023/04/18 14:48:43;;;;;;;;;;;;;;;;;;137569;1273;22358;-82
2023/04/18 14:51:44;;;;;;;;;;;;;;;;;;137642;1273;22279;-83
2023/04/18 14:54:45;;;;;;;;;;;;;;;;;;137668;1273;22300;-82
2023/04/18 14:57:46;;;;;;;;;;;;;;;;;;137640;1273;22202;-84
2023/04/18 15:00:47;;;;;;;;;;;;;;;;;;137713;1273;22634;-82
2023/04/18 15:03:48;;;;;;;;;;;;;;;;;;137653;1273;22229;-83
2023/04/18 15:06:50;;;;;;;;;;;;;;;;;;137634;1269;22209;-81
2023/04/18 15:09:51;;;;;;;;;;;;;;;;;;137653;1273;22558;-83
2023/04/18 15:12:52;;;;;;;;;;;;;;;;;;137628;1273;22792;-83
2023/04/18 15:15:53;;;;;;;;;;;;;;;;;;137595;1273;22261;-82
2023/04/18 15:18:54;;;;;;;;;;;;;;;;;;137681;1273;22375;-83
2023/04/18 15:21:55;;;;;;;;;;;;;;;;;;137700;1273;22202;-82
2023/04/18 15:24:56;;;;;;;;;;;;;;;;;;137578;1272;22277;-83
2023/04/18 15:27:57;;;;;;;;;;;;;;;;;;137615;1273;22270;-82
2023/04/18 15:30:58;;;;;;;;;;;;;;;;;;137638;1273;22220;-81
2023/04/18 15:33:59;;;;;;;;;;;;;;;;;;137613;1273;22321;-82
2023/04/18 15:37:01;;;;;;;;;;;;;;;;;;137611;1273;22961;-82
2023/04/18 15:40:04;;;;;;;;;;;;;;;;;;137663;1273;22275;-83
2023/04/18 15:43:05;;;;;;;;;;;;;;;;;;137657;1262;22769;-82
2023/04/18 15:46:07;;;;;;;;;;;;;;;;;;137705;1273;22752;-82
2023/04/18 15:49:08;;;;;;;;;;;;;;;;;;137697;1273;22349;-83
2023/04/18 15:52:14;;;;;;;;;;;;;;;;;;137724;1273;22312;-84
2023/04/18 15:55:15;;;;;;;;;;;;;;;;;;137693;1273;22295;-81
2023/04/18 15:58:20;;;;;;;;;;;;;;;;;;137627;1273;22274;-83
2023/04/18 16:01:21;;;;;;;;;;;;;;;;;;137647;1273;22222;-83
2023/04/18 16:04:22;;;;;;;;;;;;;;;;;;137705;1273;22254;-84
2023/04/18 16:07:24;;;;;;;;;;;;;;;;;;137611;1266;22206;-82
2023/04/18 16:10:25;;;;;;;;;;;;;;;;;;137588;1273;22789;-82
2023/04/18 16:13:26;;;;;;;;;;;;;;;;;;137665;1273;22278;-84
2023/04/18 16:16:27;;;;;;;;;;;;;;;;;;137639;1273;22800;-82
2023/04/18 16:19:28;;;;;;;;;;;;;;;;;;137564;1273;22520;-82
2023/04/18 16:22:29;;;;;;;;;;;;;;;;;;137581;1273;22290;-82
2023/04/18 16:25:30;;;;;;;;;;;;;;;;;;137632;1273;22258;-81
2023/04/18 16:28:36;;;;;;;;;;;;;;;;;;137638;1273;22835;-82
2023/04/18 16:31:37;;;;;;;;;;;;;;;;;;137617;1273;22355;-81
2023/04/18 16:34:38;;;;;;;;;;;;;;;;;;137557;1273;22278;-82
2023/04/18 16:37:39;;;;;;;;;;;;;;;;;;137585;1273;22745;-81
2023/04/18 16:40:40;;;;;;;;;;;;;;;;;;137628;1273;22597;-80
2023/04/18 16:43:41;;;;;;;;;;;;;;;;;;137598;1273;22259;-82
2023/04/18 16:46:42;;;;;;;;;;;;;;;;;;137624;1273;22175;-81
2023/04/18 16:49:45;;;;;;;;;;;;;;;;;;137616;1273;22319;-81
2023/04/18 16:52:46;;;;;;;;;;;;;;;;;;137622;1273;22284;-80
2023/04/18 16:55:49;;;;;;;;;;;;;;;;;;137585;1273;22325;-82
2023/04/18 16:58:50;;;;;;;;;;;;;;;;;;137601;1273;22454;-82
2023/04/18 17:01:51;;;;;;;;;;;;;;;;;;137609;1273;22164;-81
2023/04/18 17:04:52;;;;;;;;;;;;;;;;;;137582;1273;22279;-80
2023/04/18 17:07:54;;;;;;;;;;;;;;;;;;137525;1273;22261;-79
2023/04/18 17:10:56;;;;;;;;;;;;;;;;;;137542;1273;22260;-79
2023/04/18 17:13:57;;;;;;;;;;;;;;;;;;137557;1273;22663;-81
2023/04/18 17:16:58;;;;;;;;;;;;;;;;;;137560;1273;22821;-82
2023/04/18 17:20:00;;;;;;;;;;;;;;;;;;137522;1273;22403;-81
2023/04/18 17:23:01;;;;;;;;;;;;;;;;;;137569;1273;22741;-82
2023/04/18 17:26:02;;;;;;;;;;;;;;;;;;137594;1273;22319;-81
2023/04/18 17:29:03;;;;;;;;;;;;;;;;;;137539;1273;22276;-81
2023/04/18 17:32:04;;;;;;;;;;;;;;;;;;137543;1273;22272;-81
2023/04/18 17:35:06;;;;;;;;;;;;;;;;;;137603;1273;22323;-80
2023/04/18 17:38:07;;;;;;;;;;;;;;;;;;137590;1273;22283;-80
2023/04/18 17:41:08;;;;;;;;;;;;;;;;;;137597;1273;22663;-81
2023/04/18 17:44:09;;;;;;;;;;;;;;;;;;137557;1273;22287;-81
2023/04/18 17:47:10;;;;;;;;;;;;;;;;;;137575;1273;22346;-80
2023/04/18 17:50:11;;;;;;;;;;;;;;;;;;137522;1273;22197;-81
2023/04/18 17:53:12;;;;;;;;;;;;;;;;;;137590;1273;22276;-80
2023/04/18 17:56:13;;;;;;;;;;;;;;;;;;137569;1273;22191;-81
2023/04/18 17:59:14;;;;;;;;;;;;;;;;;;137595;1272;22262;-80
2023/04/18 18:02:15;;;;;;;;;;;;;;;;;;137601;1273;22261;-81
2023/04/18 18:05:17;;;;;;;;;;;;;;;;;;137566;1273;23037;-81
2023/04/18 18:08:18;;;;;;;;;;;;;;;;;;137602;1273;22271;-81
2023/04/18 18:11:20;;;;;;;;;;;;;;;;;;137607;1273;22295;-82
2023/04/18 18:14:24;;;;;;;;;;;;;;;;;;137600;1273;22749;-81
2023/04/18 18:17:25;;;;;;;;;;;;;;;;;;137588;1273;22891;-81
2023/04/18 18:20:29;;;;;;;;;;;;;;;;;;137609;1273;22739;-81
2023/04/18 18:23:30;;;;;;;;;;;;;;;;;;137594;1273;22276;-81
2023/04/18 18:26:31;;;;;;;;;;;;;;;;;;137595;1273;22460;-81
2023/04/18 18:29:32;;;;;;;;;;;;;;;;;;137610;1273;22754;-81
2023/04/18 18:32:33;;;;;;;;;;;;;;;;;;137622;1273;22284;-81
2023/04/18 18:35:34;;;;;;;;;;;;;;;;;;137620;1273;22291;-81
2023/04/18 18:38:36;;;;;;;;;;;;;;;;;;137630;1273;22280;-81
2023/04/18 18:41:37;;;;;;;;;;;;;;;;;;137593;1273;22634;-81
2023/04/18 18:44:38;;;;;;;;;;;;;;;;;;137610;1270;22189;-83
2023/04/18 18:47:39;;;;;;;;;;;;;;;;;;137608;1273;22376;-81
2023/04/18 18:50:40;;;;;;;;;;;;;;;;;;137584;1273;22307;-81
2023/04/18 18:53:41;;;;;;;;;;;;;;;;;;137600;1273;22263;-81
2023/04/18 18:56:44;;;;;;;;;;;;;;;;;;137582;1273;22692;-81
2023/04/18 18:59:45;;;;;;;;;;;;;;;;;;137576;1273;22184;-81
2023/04/18 19:02:46;;;;;;;;;;;;;;;;;;137594;1273;22797;-81
2023/04/18 19:05:47;;;;;;;;;;;;;;;;;;137556;1273;22170;-81
2023/04/18 19:08:48;;;;;;;;;;;;;;;;;;137565;1273;22333;-81
2023/04/18 19:11:49;;;;;;;;;;;;;;;;;;137435;1273;189361;-81
2023/04/18 19:14:50;;;;;;;;;;;;;;;;;;137581;1273;22179;-81
2023/04/18 19:17:51;;;;;;;;;;;;;;;;;;137582;1273;22367;-80
2023/04/18 19:20:53;;;;;;;;;;;;;;;;;;137577;1273;22276;-80
2023/04/18 19:23:54;;;;;;;;;;;;;;;;;;137557;1272;22220;-81
2023/04/18 19:26:55;;;;;;;;;;;;;;;;;;137562;1273;22270;-81
2023/04/18 19:29:56;;;;;;;;;;;;;;;;;;137581;1273;22181;-82
2023/04/18 19:32:57;;;;;;;;;;;;;;;;;;137589;1273;22785;-82
2023/04/18 19:35:58;;;;;;;;;;;;;;;;;;137601;1268;22199;-83
2023/04/18 19:39:00;;;;;;;;;;;;;;;;;;137642;1273;22205;-82
2023/04/18 19:42:02;;;;;;;;;;;;;;;;;;137563;1272;22700;-82
2023/04/18 19:45:03;;;;;;;;;;;;;;;;;;137543;1273;22285;-79
2023/04/18 19:48:04;;;;;;;;;;;;;;;;;;137529;1273;22374;-79
2023/04/18 19:51:05;;;;;;;;;;;;;;;;;;137500;1273;22334;-80
2023/04/18 19:54:06;;;;;;;;;;;;;;;;;;137532;1273;22293;-80
2023/04/18 19:57:07;;;;;;;;;;;;;;;;;;137527;1273;22492;-80
2023/04/18 20:00:08;;;;;;;;;;;;;;;;;;137594;1273;22365;-82
2023/04/18 20:03:10;;;;;;;;;;;;;;;;;;137559;1273;22282;-83
2023/04/18 20:06:11;;;;;;;;;;;;;;;;;;137587;1273;22238;-79
2023/04/18 20:09:15;;;;;;;;;;;;;;;;;;137517;1273;22638;-79
2023/04/18 20:12:16;;;;;;;;;;;;;;;;;;137545;1273;22201;-79
2023/04/18 20:15:17;;;;;;;;;;;;;;;;;;137552;1272;22271;-79
2023/04/18 20:18:18;;;;;;;;;;;;;;;;;;137508;1269;22398;-81
2023/04/18 20:21:19;;;;;;;;;;;;;;;;;;137539;1273;22192;-80
2023/04/18 20:24:20;;;;;;;;;;;;;;;;;;137524;1273;22237;-80